createdAt,value
2024-05-09T00:02:34.819Z,3.88
2024-05-09T00:05:19.685Z,4.35
2024-05-09T00:08:07.358Z,3.97
2024-05-09T00:10:52.210Z,1.88
2024-05-09T00:13:37.003Z,3.05
2024-05-09T00:16:21.791Z,2.60
2024-05-09T00:19:06.761Z,3.47
2024-05-09T00:21:51.723Z,2.83
2024-05-09T00:24:39.097Z,4.85
2024-05-09T00:27:23.846Z,3.38
2024-05-09T00:30:14.347Z,2.58
2024-05-09T00:33:02.544Z,3.30
2024-05-09T00:35:47.406Z,2.08
2024-05-09T00:38:32.131Z,3.50
2024-05-09T00:41:19.988Z,3.05
2024-05-09T00:44:04.913Z,2.83
2024-05-09T00:46:54.526Z,5.60
2024-05-09T00:49:39.564Z,3.28
2024-05-09T00:52:25.073Z,2.58
2024-05-09T00:55:10.744Z,3.38
2024-05-09T00:57:58.446Z,3.85
2024-05-09T01:00:43.451Z,3.22
2024-05-09T01:03:28.537Z,3.90
2024-05-09T01:06:13.330Z,3.53
2024-05-09T01:08:58.037Z,4.93
2024-05-09T01:11:43.487Z,3.85
2024-05-09T01:14:30.954Z,3.65
2024-05-09T01:17:16.106Z,3.75
2024-05-09T01:20:00.947Z,2.13
2024-05-09T01:22:47.426Z,2.90
2024-05-09T01:25:35.473Z,3.13
2024-05-09T01:28:20.235Z,2.78
2024-05-09T01:31:05.006Z,2.35
2024-05-09T01:33:49.963Z,2.35
2024-05-09T01:36:35.051Z,2.85
2024-05-09T01:39:19.764Z,2.47
2024-05-09T01:42:07.369Z,2.50
2024-05-09T01:44:52.059Z,3.17
2024-05-09T01:47:36.973Z,2.03
2024-05-09T01:50:33.231Z,2.92
2024-05-09T01:53:22.598Z,1.65
2024-05-09T01:56:07.509Z,2.22
2024-05-09T01:58:55.233Z,2.40
2024-05-09T02:01:56.216Z,2.53
2024-05-09T02:04:42.586Z,3.17
2024-05-09T02:07:27.965Z,4.07
2024-05-09T02:10:20.153Z,3.55
2024-05-09T02:13:09.688Z,3.75
2024-05-09T02:15:57.066Z,5.03
2024-05-09T02:18:41.979Z,3.08
2024-05-09T02:21:26.863Z,2.25
2024-05-09T02:24:11.587Z,3.30
2024-05-09T02:26:56.288Z,2.35
2024-05-09T02:29:41.062Z,3.58
2024-05-09T02:32:28.648Z,2.60
2024-05-09T02:35:13.608Z,3.47
2024-05-09T02:37:58.405Z,6.25
2024-05-09T02:40:40.938Z,3.13
2024-05-09T02:43:25.818Z,3.50
2024-05-09T02:46:07.985Z,3.13
2024-05-09T02:48:55.464Z,3.38
2024-05-09T02:51:37.612Z,2.97
2024-05-09T02:54:22.392Z,3.78
2024-05-09T02:57:04.653Z,3.20
2024-05-09T02:59:49.504Z,4.78
2024-05-09T03:02:31.931Z,3.30
2024-05-09T03:05:19.366Z,3.38
2024-05-09T03:08:04.355Z,2.90
2024-05-09T03:10:46.655Z,3.80
2024-05-09T03:13:31.364Z,4.28
2024-05-09T03:16:13.505Z,4.25
2024-05-09T03:18:58.383Z,2.55
2024-05-09T03:21:43.254Z,2.70
2024-05-09T03:24:27.999Z,2.90
2024-05-09T03:27:13.045Z,2.83
2024-05-09T03:29:55.197Z,3.20
2024-05-09T03:32:40.093Z,3.80
2024-05-09T03:35:22.501Z,7.22
2024-05-09T03:38:10.180Z,3.15
2024-05-09T03:40:54.918Z,2.85
2024-05-09T03:43:39.732Z,3.05
2024-05-09T03:46:24.479Z,2.45
2024-05-09T03:49:06.793Z,3.78
2024-05-09T03:51:51.676Z,3.03
2024-05-09T03:54:37.123Z,2.80
2024-05-09T03:57:21.860Z,5.53
2024-05-09T04:00:07.341Z,3.50
2024-05-09T04:02:59.883Z,2.88
2024-05-09T04:05:43.899Z,3.00
2024-05-09T04:08:30.620Z,3.15
2024-05-09T04:11:15.571Z,3.80
2024-05-09T04:14:00.406Z,2.75
2024-05-09T04:16:42.900Z,2.55
2024-05-09T04:19:27.789Z,4.22
2024-05-09T04:22:12.635Z,3.17
2024-05-09T04:24:54.701Z,5.25
2024-05-09T04:27:42.091Z,2.95
2024-05-09T04:30:34.383Z,2.47
2024-05-09T04:33:23.687Z,3.42
2024-05-09T04:36:07.687Z,3.97
2024-05-09T04:38:53.051Z,3.50
2024-05-09T04:41:35.251Z,3.08
2024-05-09T04:44:22.675Z,3.47
2024-05-09T04:47:05.486Z,2.38
2024-05-09T04:49:50.264Z,3.33
2024-05-09T04:52:32.382Z,3.97
2024-05-09T04:55:17.142Z,4.07
2024-05-09T04:57:59.248Z,3.38
2024-05-09T05:00:47.033Z,4.03
2024-05-09T05:03:29.462Z,3.10
2024-05-09T05:06:14.371Z,4.72
2024-05-09T05:08:56.551Z,3.25
2024-05-09T05:11:41.357Z,3.70
2024-05-09T05:14:23.626Z,3.67
2024-05-09T05:17:11.133Z,5.50
2024-05-09T05:19:54.227Z,3.70
2024-05-09T05:22:40.664Z,3.92
2024-05-09T05:25:22.748Z,4.88
2024-05-09T05:28:07.832Z,4.97
2024-05-09T05:30:50.088Z,4.68
2024-05-09T05:33:37.816Z,4.75
2024-05-09T05:36:20.096Z,5.13
2024-05-09T05:39:04.813Z,5.03
2024-05-09T05:41:48.593Z,5.00
2024-05-09T05:44:33.395Z,5.30
2024-05-09T05:47:15.663Z,3.45
2024-05-09T05:50:06.973Z,4.55
2024-05-09T05:52:49.420Z,4.45
2024-05-09T05:55:34.167Z,4.40
2024-05-09T05:58:16.372Z,5.38
2024-05-09T06:01:01.327Z,4.95
2024-05-09T06:03:43.567Z,4.25
2024-05-09T06:06:31.022Z,4.00
2024-05-09T06:09:13.228Z,4.50
2024-05-09T06:11:58.150Z,8.43
2024-05-09T06:14:40.693Z,9.38
2024-05-09T06:17:25.694Z,5.63
2024-05-09T06:20:13.515Z,4.97
2024-05-09T06:23:08.002Z,5.40
2024-05-09T06:25:50.316Z,6.45
2024-05-09T06:28:35.090Z,5.82
2024-05-09T06:31:17.318Z,6.07
2024-05-09T06:34:02.248Z,5.07
2024-05-09T06:36:44.529Z,5.35
2024-05-09T06:39:31.868Z,8.00
2024-05-09T06:42:14.054Z,8.60
2024-05-09T06:44:58.925Z,4.10
2024-05-09T06:47:41.382Z,6.05
2024-05-09T06:50:35.614Z,5.65
2024-05-09T06:53:21.930Z,4.85
2024-05-09T06:56:10.133Z,5.05
2024-05-09T06:58:54.359Z,5.97
2024-05-09T07:01:39.256Z,6.18
2024-05-09T07:04:21.524Z,6.35
2024-05-09T07:07:09.313Z,6.47
2024-05-09T07:09:51.528Z,8.02
2024-05-09T07:12:39.003Z,7.82
2024-05-09T07:15:21.270Z,5.50
2024-05-09T07:18:10.860Z,6.60
2024-05-09T07:20:56.002Z,5.05
2024-05-09T07:23:38.943Z,7.25
2024-05-09T07:26:23.773Z,5.88
2024-05-09T07:29:08.655Z,6.70
2024-05-09T07:31:53.821Z,6.35
2024-05-09T07:34:36.104Z,7.07
2024-05-09T07:37:20.982Z,5.95
2024-05-09T07:40:05.786Z,7.32
2024-05-09T07:42:51.419Z,4.18
2024-05-09T07:54:00.536Z,4.55
2024-05-09T07:56:43.567Z,5.88
2024-05-09T07:59:28.485Z,4.40
2024-05-09T08:02:16.098Z,4.05
2024-05-09T08:04:58.411Z,4.40
2024-05-09T08:07:45.245Z,3.83
2024-05-09T08:10:29.131Z,6.07
2024-05-09T08:13:15.217Z,4.13
2024-05-09T08:15:57.473Z,3.83
2024-05-09T08:18:45.138Z,4.35
2024-05-09T08:21:27.650Z,3.97
2024-05-09T08:24:12.789Z,4.03
2024-05-09T08:26:54.980Z,4.22
2024-05-09T08:29:39.895Z,4.60
2024-05-09T08:32:23.436Z,3.97
2024-05-09T08:35:11.291Z,3.60
2024-05-09T08:37:53.786Z,4.35
2024-05-09T08:40:39.034Z,3.08
2024-05-09T08:43:23.511Z,6.28
2024-05-09T08:46:08.650Z,5.40
2024-05-09T08:48:53.188Z,3.33
2024-05-09T08:51:40.818Z,3.63
2024-05-09T08:54:23.010Z,3.60
2024-05-09T08:57:09.004Z,3.63
2024-05-09T08:59:51.973Z,4.03
2024-05-09T09:02:38.724Z,2.85
2024-05-09T09:05:21.855Z,5.28
2024-05-09T09:08:09.987Z,2.72
2024-05-09T09:10:54.188Z,4.47
2024-05-09T09:13:39.006Z,2.85
2024-05-09T09:16:31.464Z,3.75
2024-05-09T09:19:16.675Z,3.78
2024-05-09T09:21:58.975Z,5.28
2024-05-09T09:24:46.521Z,2.88
2024-05-09T09:27:28.819Z,8.25
2024-05-09T09:30:26.870Z,4.20
2024-05-09T09:33:17.804Z,4.13
2024-05-09T09:36:03.466Z,6.72
2024-05-09T09:38:46.849Z,4.10
2024-05-09T09:41:35.301Z,4.85
2024-05-09T09:44:17.527Z,7.25
2024-05-09T09:47:02.969Z,6.43
2024-05-09T09:49:45.846Z,6.50
2024-05-09T09:52:31.213Z,5.25
2024-05-09T09:55:13.601Z,6.35
2024-05-09T09:58:01.233Z,5.22
2024-05-09T10:00:43.909Z,4.75
2024-05-09T10:03:29.242Z,6.85
2024-05-09T10:06:12.281Z,5.50
2024-05-09T10:08:57.150Z,4.90
2024-05-09T10:11:45.206Z,7.90
2024-05-09T10:14:42.688Z,6.22
2024-05-09T10:17:24.980Z,5.20
2024-05-09T10:20:18.295Z,6.05
2024-05-09T10:23:05.446Z,5.25
2024-05-09T10:25:57.404Z,6.22
2024-05-09T10:28:42.838Z,4.63
2024-05-09T10:31:31.426Z,6.65
2024-05-09T10:34:20.087Z,4.93
2024-05-09T10:37:04.704Z,4.35
2024-05-09T10:39:50.213Z,6.15
2024-05-09T10:42:32.476Z,6.15
2024-05-09T10:45:19.213Z,3.92
2024-05-09T10:48:04.390Z,6.03
2024-05-09T10:50:49.308Z,4.72
2024-05-09T10:53:31.808Z,3.42
2024-05-09T10:56:17.407Z,4.85
2024-05-09T10:58:59.750Z,5.13
2024-05-09T11:01:44.831Z,6.88
2024-05-09T11:04:30.039Z,5.10
2024-05-09T11:07:15.979Z,5.75
2024-05-09T11:09:58.422Z,5.05
2024-05-09T11:12:46.509Z,5.15
2024-05-09T11:15:37.722Z,5.72
2024-05-09T11:18:25.542Z,5.32
2024-05-09T11:21:14.395Z,4.15
2024-05-09T11:23:59.852Z,6.13
2024-05-09T11:26:43.285Z,5.28
2024-05-09T11:29:39.105Z,6.88
2024-05-09T11:32:31.271Z,3.40
2024-05-09T11:35:13.540Z,6.75
2024-05-09T11:38:00.999Z,6.80
2024-05-09T11:40:43.274Z,4.78
2024-05-09T11:43:28.364Z,5.38
2024-05-09T11:46:10.594Z,3.85
2024-05-09T11:48:55.521Z,4.38
2024-05-09T11:51:37.846Z,3.20
2024-05-09T11:54:25.272Z,6.13
2024-05-09T11:57:07.526Z,4.65
2024-05-09T11:59:52.334Z,5.28
2024-05-09T12:02:35.703Z,3.03
2024-05-09T12:05:20.924Z,4.07
2024-05-09T12:08:03.467Z,5.00
2024-05-09T12:10:51.097Z,6.10
2024-05-09T12:13:33.417Z,6.07
2024-05-09T12:16:18.236Z,5.07
2024-05-09T12:19:00.570Z,3.72
2024-05-09T12:21:45.559Z,3.83
2024-05-09T12:24:29.093Z,5.07
2024-05-09T12:27:16.657Z,5.32
2024-05-09T12:29:58.747Z,3.58
2024-05-09T12:32:43.591Z,4.60
2024-05-09T12:35:25.823Z,4.22
2024-05-09T12:38:10.633Z,5.78
2024-05-09T12:40:55.414Z,4.60
2024-05-09T12:43:40.264Z,4.57
2024-05-09T12:46:25.212Z,5.30
2024-05-09T12:49:07.686Z,6.50
2024-05-09T12:51:52.761Z,6.05
2024-05-09T12:54:37.528Z,6.70
2024-05-09T12:57:19.798Z,6.03
2024-05-09T13:00:14.215Z,5.70
2024-05-09T13:03:05.508Z,3.53
2024-05-09T13:05:48.021Z,4.95
2024-05-09T13:08:32.806Z,5.70
2024-05-09T13:11:14.985Z,5.35
2024-05-09T13:13:59.919Z,5.00
2024-05-09T13:16:44.714Z,4.75
2024-05-09T13:19:29.591Z,5.40
2024-05-09T13:22:12.029Z,4.93
2024-05-09T13:24:56.889Z,5.57
2024-05-09T13:27:41.689Z,3.70
2024-05-09T13:30:29.903Z,4.50
2024-05-09T13:33:25.910Z,3.92
2024-05-09T13:36:11.035Z,4.22
2024-05-09T13:38:53.182Z,3.88
2024-05-09T13:41:37.946Z,4.40
2024-05-09T13:44:20.070Z,4.00
2024-05-09T13:47:24.431Z,3.47
2024-05-09T13:50:14.199Z,4.35
2024-05-09T13:53:06.842Z,4.20
2024-05-09T13:55:53.146Z,4.22
2024-05-09T13:58:35.743Z,6.00
2024-05-09T14:01:21.016Z,5.10
2024-05-09T14:04:03.406Z,3.67
2024-05-09T14:06:50.938Z,6.50
2024-05-09T14:09:33.141Z,3.53
2024-05-09T14:12:17.835Z,4.63
2024-05-09T14:14:59.972Z,3.45
2024-05-09T14:17:44.743Z,2.85
2024-05-09T14:20:31.244Z,2.90
2024-05-09T14:23:20.248Z,5.15
2024-05-09T14:26:02.399Z,4.18
2024-05-09T14:28:47.160Z,3.42
2024-05-09T14:31:29.362Z,4.00
2024-05-09T14:34:14.540Z,3.25
2024-05-09T14:36:58.824Z,3.33
2024-05-09T14:39:46.392Z,3.90
2024-05-09T14:42:28.932Z,4.00
2024-05-09T14:45:13.715Z,3.45
2024-05-09T14:47:56.067Z,3.05
2024-05-09T14:50:41.159Z,3.15
2024-05-09T14:53:23.743Z,4.60
2024-05-09T14:56:11.549Z,5.07
2024-05-09T14:58:57.216Z,8.82
2024-05-09T15:01:39.384Z,3.72
2024-05-09T15:04:24.431Z,3.53
2024-05-09T15:07:08.252Z,3.72
2024-05-09T15:09:53.778Z,5.55
2024-05-09T15:12:41.180Z,3.80
2024-05-09T15:15:23.322Z,4.88
2024-05-09T15:18:08.403Z,4.28
2024-05-09T15:20:53.423Z,6.15
2024-05-09T15:23:35.607Z,5.72
2024-05-09T15:26:20.571Z,6.10
2024-05-09T15:29:05.359Z,6.43
2024-05-09T15:31:53.096Z,6.22
2024-05-09T15:34:35.293Z,5.50
2024-05-09T15:37:20.084Z,6.93
2024-05-09T15:40:02.594Z,6.68
2024-05-09T15:42:48.063Z,7.55
2024-05-09T15:45:32.985Z,6.95
2024-05-09T15:48:18.283Z,5.30
2024-05-09T15:51:00.642Z,4.57
2024-05-09T15:53:45.497Z,7.40
2024-05-09T15:56:30.364Z,5.68
2024-05-09T15:59:12.570Z,6.38
2024-05-09T16:02:00.008Z,5.50
2024-05-09T16:04:42.328Z,5.90
2024-05-09T16:07:27.472Z,7.00
2024-05-09T16:10:13.177Z,5.07
2024-05-09T16:13:01.482Z,7.00
2024-05-09T16:15:44.210Z,5.05
2024-05-09T16:18:31.767Z,6.18
2024-05-09T16:21:14.022Z,6.70
2024-05-09T16:23:58.801Z,6.28
2024-05-09T16:26:40.924Z,4.97
2024-05-09T16:29:25.794Z,6.22
2024-05-09T16:32:08.090Z,5.82
2024-05-09T16:34:56.099Z,5.63
2024-05-09T16:37:38.320Z,4.53
2024-05-09T16:40:30.339Z,5.47
2024-05-09T16:43:19.795Z,3.45
2024-05-09T16:46:05.570Z,4.40
2024-05-09T16:48:47.890Z,3.92
2024-05-09T16:51:35.360Z,3.95
2024-05-09T16:54:17.491Z,4.30
2024-05-09T16:57:02.265Z,4.47
2024-05-09T16:59:45.194Z,4.22
2024-05-09T17:02:30.945Z,4.22
2024-05-09T17:05:16.861Z,4.80
2024-05-09T17:08:01.883Z,3.90
2024-05-09T17:10:48.646Z,3.95
2024-05-09T17:13:39.294Z,3.70
2024-05-09T17:16:24.282Z,2.90
2024-05-09T17:19:09.444Z,3.97
2024-05-09T17:21:52.131Z,2.80
2024-05-09T17:24:39.634Z,3.05
2024-05-09T17:27:21.980Z,3.20
2024-05-09T17:30:10.031Z,2.88
2024-05-09T17:32:54.520Z,2.20
2024-05-09T17:35:39.539Z,2.47
2024-05-09T17:38:23.408Z,1.70
2024-05-09T17:41:10.875Z,2.65
2024-05-09T17:43:53.008Z,2.35
2024-05-09T17:46:37.839Z,3.75
2024-05-09T17:49:20.169Z,2.78
2024-05-09T17:52:05.353Z,2.05
2024-05-09T17:54:47.581Z,3.35
2024-05-09T17:57:35.014Z,2.95
2024-05-09T18:00:24.768Z,2.45
2024-05-09T18:03:19.030Z,2.50
2024-05-09T18:06:01.342Z,2.53
2024-05-09T18:08:46.193Z,3.50
2024-05-09T18:11:28.410Z,2.97
2024-05-09T18:14:15.864Z,3.08
2024-05-09T18:16:58.086Z,2.22
2024-05-09T18:19:42.903Z,2.17
2024-05-09T18:22:25.089Z,2.67
2024-05-09T18:25:10.340Z,2.47
2024-05-09T18:27:52.605Z,2.58
2024-05-09T18:30:40.259Z,3.50
2024-05-09T18:33:24.479Z,2.60
2024-05-09T18:36:10.414Z,1.67
2024-05-09T18:38:52.605Z,1.90
2024-05-09T18:41:37.435Z,3.50
2024-05-09T18:44:19.658Z,1.80
2024-05-09T18:47:07.308Z,1.60
2024-05-09T18:49:49.685Z,1.77
2024-05-09T18:52:34.559Z,1.48
2024-05-09T18:55:16.785Z,2.28
2024-05-09T18:58:01.783Z,1.85
2024-05-09T19:00:46.639Z,2.47
2024-05-09T19:03:36.843Z,3.42
2024-05-09T19:06:22.782Z,2.70
2024-05-09T19:09:09.591Z,1.63
2024-05-09T19:11:51.856Z,3.33
2024-05-09T19:14:36.738Z,2.88
2024-05-09T19:17:19.055Z,2.60
2024-05-09T19:20:09.134Z,2.35
2024-05-09T19:22:53.705Z,2.75
2024-05-09T19:25:38.658Z,1.20
2024-05-09T19:28:20.920Z,1.77
2024-05-09T19:31:05.940Z,1.48
2024-05-09T19:33:48.242Z,1.80
2024-05-09T19:36:35.782Z,1.08
2024-05-09T19:39:18.066Z,1.20
2024-05-09T19:42:02.831Z,1.42
2024-05-09T19:44:45.035Z,2.55
2024-05-09T19:47:30.047Z,1.13
2024-05-09T19:50:19.493Z,3.88
2024-05-09T19:53:11.359Z,1.92
2024-05-09T19:55:53.915Z,2.05
2024-05-09T19:58:38.950Z,1.80
2024-05-09T20:01:21.296Z,2.83
2024-05-09T20:04:07.026Z,2.13
2024-05-09T20:06:49.399Z,2.80
2024-05-09T20:09:37.130Z,2.15
2024-05-09T20:12:21.976Z,2.72
2024-05-09T20:15:04.369Z,3.47
2024-05-09T20:17:49.442Z,1.85
2024-05-09T20:20:38.124Z,3.17
2024-05-09T20:23:26.421Z,2.47
2024-05-09T20:26:11.287Z,2.33
2024-05-09T20:28:56.171Z,2.00
2024-05-09T20:31:38.995Z,2.15
2024-05-09T20:34:23.890Z,1.92
2024-05-09T20:37:06.212Z,3.80
2024-05-09T20:39:51.171Z,2.40
2024-05-09T20:42:36.220Z,2.10
2024-05-09T20:45:21.064Z,1.90
2024-05-09T20:48:03.437Z,4.20
2024-05-09T20:50:48.369Z,4.85
2024-05-09T20:53:30.554Z,2.38
2024-05-09T20:56:15.390Z,3.40
2024-05-09T20:59:00.399Z,3.53
2024-05-09T21:01:49.159Z,2.20
2024-05-09T21:04:34.643Z,3.15
2024-05-09T21:07:17.287Z,2.47
2024-05-09T21:10:02.911Z,2.83
2024-05-09T21:12:45.989Z,2.10
2024-05-09T21:15:33.745Z,4.85
2024-05-09T21:18:18.808Z,3.00
2024-05-09T21:21:01.124Z,2.05
2024-05-09T21:23:45.988Z,2.60
2024-05-09T21:26:29.547Z,1.77
2024-05-09T21:29:14.406Z,2.88
2024-05-09T21:31:59.253Z,1.73
2024-05-09T21:34:44.209Z,2.50
2024-05-09T21:37:26.431Z,1.80
2024-05-09T21:40:16.936Z,2.80
2024-05-09T21:43:07.825Z,2.45
2024-05-09T21:45:52.952Z,3.33
2024-05-09T21:48:38.727Z,3.13
2024-05-09T21:51:23.645Z,3.60
2024-05-09T21:54:05.873Z,3.75
2024-05-09T21:56:50.722Z,4.57
2024-05-09T21:59:32.910Z,6.82
2024-05-09T22:02:17.917Z,3.83
2024-05-09T22:05:03.070Z,4.25
2024-05-09T22:07:48.031Z,4.85
2024-05-09T22:10:34.269Z,4.43
2024-05-09T22:13:21.412Z,4.40
2024-05-09T22:16:03.962Z,4.47
2024-05-09T22:18:49.138Z,5.13
2024-05-09T22:21:34.179Z,5.25
2024-05-09T22:24:19.039Z,4.97
2024-05-09T22:27:01.237Z,5.72
2024-05-09T22:29:46.076Z,4.72
2024-05-09T22:32:28.349Z,4.72
2024-05-09T22:35:13.219Z,4.43
2024-05-09T22:38:00.597Z,4.28
2024-05-09T22:40:48.034Z,5.55
2024-05-09T22:43:34.670Z,4.20
2024-05-09T22:46:16.920Z,4.00
2024-05-09T22:49:01.814Z,3.70
2024-05-09T22:51:44.103Z,5.55
2024-05-09T22:54:31.518Z,4.47
2024-05-09T22:57:13.635Z,3.60
2024-05-09T22:59:58.382Z,4.85
2024-05-09T23:02:41.643Z,6.05
2024-05-09T23:05:26.469Z,6.43
2024-05-09T23:08:08.889Z,5.05
2024-05-09T23:10:56.515Z,4.88
2024-05-09T23:13:38.683Z,5.38
2024-05-09T23:16:23.499Z,4.55
2024-05-09T23:19:05.758Z,5.03
2024-05-09T23:21:50.627Z,5.40
2024-05-09T23:24:32.970Z,5.28
2024-05-09T23:27:20.441Z,5.30
2024-05-09T23:30:03.448Z,4.38
2024-05-09T23:32:50.661Z,5.40
2024-05-09T23:35:32.807Z,7.70
2024-05-09T23:38:19.532Z,5.55
2024-05-09T23:41:03.037Z,6.00
2024-05-09T23:43:50.466Z,5.28
2024-05-09T23:46:32.616Z,4.85
2024-05-09T23:49:17.419Z,4.85
2024-05-09T23:51:59.601Z,5.13
2024-05-09T23:54:44.614Z,5.35
2024-05-09T23:57:26.949Z,4.72
